Terminal Aerodrome Forecast
Issued by NWS

Home | Current Version | Previous Version | Text Only | Print | Product List | Glossary On
Versions: 1 2 3 4 5 6 7 8 9 10 11 12 13 14 15 16
000
FTUS43 KSGF 241100
TAFBBG
TAF
KBBG 241127Z 2412/2512 16011G19KT P6SM BKN120
      TEMPO 2412/2414 17017G24KT P6SM -RA OVC050
     FM241800 21015G22KT 3SM -TSRA OVC020CB
     FM242245 29014KT P6SM BKN100
     FM250300 29008KT P6SM SKC=

USA.gov is the U.S. government's official web portal to all federal, state and local government web resources and services.